createdAt,value
2018-09-27T00:00:17.417Z,94.31
2018-09-27T00:01:17.482Z,93.94
2018-09-27T00:02:17.478Z,93.43
2018-09-27T00:03:17.462Z,93.08
2018-09-27T00:04:17.435Z,93.16
2018-09-27T00:05:17.366Z,92.73
2018-09-27T00:06:17.445Z,92.32
2018-09-27T00:07:17.495Z,91.84
2018-09-27T00:08:17.429Z,91.63
2018-09-27T00:09:17.504Z,91.38
2018-09-27T00:10:17.385Z,91.11
2018-09-27T00:11:17.498Z,91.03
2018-09-27T00:12:17.437Z,90.80
2018-09-27T00:13:17.466Z,90.47
2018-09-27T00:14:17.599Z,90.55
2018-09-27T00:15:17.385Z,90.02
2018-09-27T00:16:17.468Z,89.67
2018-09-27T00:17:17.451Z,89.45
2018-09-27T00:18:17.401Z,89.11
2018-09-27T00:19:17.373Z,88.71
2018-09-27T00:20:17.329Z,88.39
2018-09-27T00:21:17.411Z,87.85
2018-09-27T00:22:17.393Z,87.96
2018-09-27T00:23:17.454Z,87.67
2018-09-27T00:24:17.473Z,87.26
2018-09-27T00:25:17.460Z,87.00
2018-09-27T00:26:17.374Z,86.87
2018-09-27T00:27:17.407Z,86.91
2018-09-27T00:28:17.419Z,87.18
2018-09-27T00:29:17.470Z,87.02
2018-09-27T00:30:17.472Z,86.71
2018-09-27T00:31:17.407Z,86.22
2018-09-27T00:32:17.476Z,86.01
2018-09-27T00:33:17.474Z,85.56
2018-09-27T00:34:17.402Z,85.48
2018-09-27T00:35:17.406Z,85.61
2018-09-27T00:36:17.419Z,85.88
2018-09-27T00:37:17.482Z,85.56
2018-09-27T00:38:17.410Z,85.24
2018-09-27T00:39:17.481Z,85.08
2018-09-27T00:40:17.457Z,85.08
2018-09-27T00:41:17.488Z,84.87
2018-09-27T00:42:17.428Z,84.47
2018-09-27T00:43:17.392Z,84.05
2018-09-27T00:44:17.408Z,84.02
2018-09-27T00:45:17.454Z,83.94
2018-09-27T00:46:17.432Z,83.83
2018-09-27T00:47:17.546Z,84.17
2018-09-27T00:48:17.529Z,83.94
2018-09-27T00:49:17.509Z,83.91
2018-09-27T00:50:17.497Z,84.15
2018-09-27T00:51:17.501Z,84.09
2018-09-27T00:52:17.502Z,84.05
2018-09-27T00:53:17.530Z,83.78
2018-09-27T00:54:17.500Z,83.14
2018-09-27T00:55:17.430Z,83.17
2018-09-27T00:56:17.460Z,83.28
2018-09-27T00:57:17.532Z,83.17
2018-09-27T00:58:17.432Z,82.72
2018-09-27T00:59:17.515Z,82.32
2018-09-27T01:00:17.502Z,82.43
2018-09-27T01:01:17.443Z,82.48
2018-09-27T01:02:17.506Z,82.11
2018-09-27T01:03:17.500Z,82.03
2018-09-27T01:04:17.436Z,82.27
2018-09-27T01:05:17.518Z,82.24
2018-09-27T01:06:17.436Z,82.00
2018-09-27T01:07:17.516Z,82.00
2018-09-27T01:08:17.473Z,81.79
2018-09-27T01:09:17.516Z,82.03
2018-09-27T01:10:17.511Z,82.27
2018-09-27T01:11:17.401Z,82.27
2018-09-27T01:12:17.464Z,81.90
2018-09-27T01:13:17.427Z,81.87
2018-09-27T01:14:17.500Z,82.06
2018-09-27T01:15:17.490Z,82.08
2018-09-27T01:16:17.441Z,82.35
2018-09-27T01:17:17.463Z,82.24
2018-09-27T01:18:17.475Z,82.45
2018-09-27T01:19:17.381Z,82.56
2018-09-27T01:20:17.434Z,82.45
2018-09-27T01:21:17.544Z,82.61
2018-09-27T01:22:17.440Z,82.61
2018-09-27T01:23:17.518Z,82.53
2018-09-27T01:24:17.536Z,82.69
2018-09-27T01:25:17.421Z,82.35
2018-09-27T01:26:17.548Z,82.14
2018-09-27T01:27:17.443Z,82.03
2018-09-27T01:28:17.515Z,82.21
2018-09-27T01:29:17.495Z,81.74
2018-09-27T01:30:17.544Z,81.63
2018-09-27T01:31:17.484Z,81.79
2018-09-27T01:32:17.543Z,82.14
2018-09-27T01:33:17.541Z,82.40
2018-09-27T01:34:17.524Z,81.58
2018-09-27T01:35:17.501Z,81.52
2018-09-27T01:36:17.492Z,81.79
2018-09-27T01:37:17.585Z,82.19
2018-09-27T01:38:17.592Z,81.90
2018-09-27T01:39:17.432Z,82.16
2018-09-27T01:40:17.558Z,81.92
2018-09-27T01:41:17.509Z,81.82
2018-09-27T01:42:17.503Z,81.68
2018-09-27T01:43:17.505Z,81.56
2018-09-27T01:44:17.521Z,81.24
2018-09-27T01:45:17.509Z,81.13
2018-09-27T01:46:17.538Z,80.73
2018-09-27T01:47:17.508Z,80.65
2018-09-27T01:48:17.508Z,80.68
2018-09-27T01:49:17.432Z,80.63
2018-09-27T01:50:17.436Z,80.81
2018-09-27T01:51:17.536Z,80.55
2018-09-27T01:52:17.454Z,80.31
2018-09-27T01:53:17.436Z,80.63
2018-09-27T01:54:17.477Z,80.97
2018-09-27T01:55:17.443Z,81.10
2018-09-27T01:56:17.479Z,81.10
2018-09-27T01:57:17.521Z,80.76
2018-09-27T01:58:17.443Z,80.73
2018-09-27T01:59:17.505Z,80.68
2018-09-27T02:00:17.535Z,80.87
2018-09-27T02:01:17.447Z,81.18
2018-09-27T02:02:17.543Z,80.49
2018-09-27T02:03:17.466Z,80.55
2018-09-27T02:04:17.468Z,80.79
2018-09-27T02:05:17.539Z,80.26
2018-09-27T02:06:17.472Z,80.39
2018-09-27T02:07:17.472Z,80.76
2018-09-27T02:08:17.543Z,80.92
2018-09-27T02:09:17.544Z,80.26
2018-09-27T02:10:17.607Z,80.07
2018-09-27T02:11:17.570Z,79.83
2018-09-27T02:12:17.525Z,79.63
2018-09-27T02:13:17.584Z,79.63
2018-09-27T02:14:17.531Z,79.60
2018-09-27T02:15:17.622Z,79.79
2018-09-27T02:16:17.471Z,79.41
2018-09-27T02:17:17.591Z,79.65
2018-09-27T02:18:17.573Z,79.63
2018-09-27T02:19:17.554Z,79.36
2018-09-27T02:20:17.478Z,79.39
2018-09-27T02:21:17.554Z,79.15
2018-09-27T02:22:17.523Z,78.99
2018-09-27T02:23:17.555Z,79.05
2018-09-27T02:24:17.482Z,79.02
2018-09-27T02:25:17.557Z,79.10
2018-09-27T02:26:17.479Z,79.36
2018-09-27T02:27:17.486Z,79.63
2018-09-27T02:28:17.558Z,79.52
2018-09-27T02:29:17.561Z,79.55
2018-09-27T02:30:17.493Z,79.68
2018-09-27T02:31:17.568Z,79.63
2018-09-27T02:32:17.566Z,79.75
2018-09-27T02:33:17.607Z,79.79
2018-09-27T02:34:17.493Z,79.79
2018-09-27T02:35:17.493Z,79.81
2018-09-27T02:36:17.570Z,79.94
2018-09-27T02:37:17.568Z,79.99
2018-09-27T02:38:17.493Z,79.97
2018-09-27T02:39:17.495Z,79.99
2018-09-27T02:40:17.471Z,80.29
2018-09-27T02:41:17.531Z,80.36
2018-09-27T02:42:17.540Z,80.76
2018-09-27T02:43:17.563Z,80.92
2018-09-27T02:44:17.485Z,80.81
2018-09-27T02:45:17.476Z,80.73
2018-09-27T02:46:17.559Z,80.79
2018-09-27T02:47:17.499Z,80.68
2018-09-27T02:48:17.489Z,80.92
2018-09-27T02:49:17.574Z,80.89
2018-09-27T02:50:17.557Z,80.84
2018-09-27T02:51:17.557Z,81.10
2018-09-27T02:52:17.605Z,80.94
2018-09-27T02:53:17.562Z,80.65
2018-09-27T02:54:17.585Z,80.57
2018-09-27T02:55:17.585Z,80.36
2018-09-27T02:56:17.530Z,80.23
2018-09-27T02:57:17.562Z,80.02
2018-09-27T02:58:17.615Z,80.18
2018-09-27T02:59:17.618Z,79.91
2018-09-27T03:00:17.601Z,79.89
2018-09-27T03:01:17.563Z,80.15
2018-09-27T03:02:17.609Z,80.07
2018-09-27T03:03:17.523Z,79.83
2018-09-27T03:04:17.607Z,79.99
2018-09-27T03:05:17.526Z,80.02
2018-09-27T03:06:17.529Z,79.97
2018-09-27T03:07:17.597Z,79.81
2018-09-27T03:08:17.619Z,79.68
2018-09-27T03:09:17.600Z,79.75
2018-09-27T03:10:17.514Z,80.05
2018-09-27T03:11:17.621Z,79.81
2018-09-27T03:12:17.522Z,79.86
2018-09-27T03:13:17.572Z,79.99
2018-09-27T03:14:17.628Z,79.99
2018-09-27T03:15:17.627Z,79.75
2018-09-27T03:16:17.518Z,79.75
2018-09-27T03:17:17.640Z,79.86
2018-09-27T03:18:17.643Z,79.97
2018-09-27T03:19:17.572Z,79.94
2018-09-27T03:20:17.646Z,80.13
2018-09-27T03:21:17.509Z,80.10
2018-09-27T03:22:17.610Z,80.15
2018-09-27T03:23:17.568Z,80.15
2018-09-27T03:24:17.538Z,80.15
2018-09-27T03:25:17.609Z,80.10
2018-09-27T03:26:17.585Z,79.71
2018-09-27T03:27:17.644Z,79.75
2018-09-27T03:28:17.575Z,80.13
2018-09-27T03:29:17.613Z,79.75
2018-09-27T03:30:17.604Z,79.73
2018-09-27T03:31:17.549Z,80.21
2018-09-27T03:32:17.513Z,80.33
2018-09-27T03:33:17.613Z,80.39
2018-09-27T03:34:17.582Z,80.21
2018-09-27T03:35:17.613Z,79.63
2018-09-27T03:36:17.535Z,79.55
2018-09-27T03:37:17.584Z,79.57
2018-09-27T03:38:17.557Z,79.44
2018-09-27T03:39:17.600Z,79.23
2018-09-27T03:40:17.682Z,79.20
2018-09-27T03:41:17.616Z,78.91
2018-09-27T03:42:17.538Z,79.07
2018-09-27T03:43:17.553Z,79.07
2018-09-27T03:44:17.615Z,79.25
2018-09-27T03:45:17.554Z,79.23
2018-09-27T03:46:17.620Z,79.60
2018-09-27T03:47:17.550Z,79.73
2018-09-27T03:48:17.618Z,79.91
2018-09-27T03:49:17.503Z,80.13
2018-09-27T03:50:17.653Z,80.21
2018-09-27T03:51:17.654Z,80.26
2018-09-27T03:52:17.567Z,80.18
2018-09-27T03:53:17.553Z,80.39
2018-09-27T03:54:17.543Z,80.55
2018-09-27T03:55:17.572Z,80.52
2018-09-27T03:56:17.550Z,80.63
2018-09-27T03:57:17.629Z,80.63
2018-09-27T03:58:17.658Z,80.79
2018-09-27T03:59:17.666Z,80.89
2018-09-27T04:00:17.574Z,81.05
2018-09-27T04:01:17.553Z,81.02
2018-09-27T04:02:17.614Z,80.94
2018-09-27T04:03:17.710Z,80.94
2018-09-27T04:04:17.635Z,81.18
2018-09-27T04:05:17.571Z,80.97
2018-09-27T04:06:17.675Z,81.05
2018-09-27T04:07:17.608Z,80.89
2018-09-27T04:08:17.645Z,80.81
2018-09-27T04:09:17.667Z,80.92
2018-09-27T04:10:17.647Z,80.84
2018-09-27T04:11:17.666Z,80.92
2018-09-27T04:12:17.638Z,80.92
2018-09-27T04:13:17.602Z,80.55
2018-09-27T04:14:17.776Z,80.73
2018-09-27T04:15:17.620Z,80.29
2018-09-27T04:16:17.612Z,80.02
2018-09-27T04:17:17.585Z,80.02
2018-09-27T04:18:17.623Z,80.33
2018-09-27T04:19:17.712Z,80.18
2018-09-27T04:20:17.583Z,80.15
2018-09-27T04:21:17.544Z,79.97
2018-09-27T04:22:17.583Z,79.79
2018-09-27T04:23:17.577Z,80.02
2018-09-27T04:24:17.645Z,79.73
2018-09-27T04:25:17.605Z,79.97
2018-09-27T04:26:17.593Z,80.05
2018-09-27T04:27:17.593Z,79.91
2018-09-27T04:28:17.606Z,79.79
2018-09-27T04:29:17.711Z,79.63
2018-09-27T04:30:17.656Z,79.49
2018-09-27T04:31:17.618Z,79.73
2018-09-27T04:32:17.656Z,79.89
2018-09-27T04:33:17.627Z,79.83
2018-09-27T04:34:17.641Z,80.02
2018-09-27T04:35:17.575Z,80.10
2018-09-27T04:36:17.636Z,80.07
2018-09-27T04:37:17.624Z,80.02
2018-09-27T04:38:17.559Z,80.02
2018-09-27T04:39:17.581Z,79.99
2018-09-27T04:40:17.554Z,80.02
2018-09-27T04:41:17.533Z,80.07
2018-09-27T04:42:17.562Z,80.02
2018-09-27T04:43:17.597Z,80.15
2018-09-27T04:44:17.646Z,80.15
2018-09-27T04:45:17.614Z,80.31
2018-09-27T04:46:17.649Z,80.41
2018-09-27T04:47:17.535Z,80.63
2018-09-27T04:48:17.647Z,80.71
2018-09-27T04:49:17.641Z,80.89
2018-09-27T04:50:17.699Z,81.02
2018-09-27T04:51:17.643Z,80.94
2018-09-27T04:52:17.611Z,81.02
2018-09-27T04:53:17.632Z,80.92
2018-09-27T04:54:17.781Z,80.76
2018-09-27T04:55:17.703Z,80.63
2018-09-27T04:56:17.670Z,80.52
2018-09-27T04:57:17.639Z,80.79
2018-09-27T04:58:17.704Z,80.81
2018-09-27T04:59:17.613Z,80.76
2018-09-27T05:00:17.673Z,80.97
2018-09-27T05:01:17.715Z,80.81
2018-09-27T05:02:17.704Z,80.73
2018-09-27T05:03:17.678Z,80.63
2018-09-27T05:04:17.621Z,80.65
2018-09-27T05:05:17.679Z,80.73
2018-09-27T05:06:17.720Z,80.89
2018-09-27T05:07:17.711Z,80.87
2018-09-27T05:08:17.621Z,80.57
2018-09-27T05:09:17.683Z,80.68
2018-09-27T05:10:17.603Z,80.76
2018-09-27T05:11:17.604Z,80.65
2018-09-27T05:12:17.678Z,80.49
2018-09-27T05:13:17.680Z,80.57
2018-09-27T05:14:17.606Z,80.71
2018-09-27T05:15:17.612Z,80.76
2018-09-27T05:16:17.608Z,80.55
2018-09-27T05:17:17.680Z,80.55
2018-09-27T05:18:17.607Z,80.49
2018-09-27T05:19:17.702Z,80.49
2018-09-27T05:20:17.721Z,80.57
2018-09-27T05:21:17.653Z,80.60
2018-09-27T05:22:17.611Z,80.55
2018-09-27T05:23:17.722Z,80.55
2018-09-27T05:24:17.713Z,80.65
2018-09-27T05:25:17.634Z,80.79
2018-09-27T05:26:17.750Z,80.65
2018-09-27T05:27:17.681Z,80.71
2018-09-27T05:28:17.660Z,80.84
2018-09-27T05:29:17.708Z,80.92
2018-09-27T05:30:17.626Z,80.92
2018-09-27T05:31:17.516Z,80.92
2018-09-27T05:32:17.573Z,81.18
2018-09-27T05:33:17.515Z,81.26
2018-09-27T05:34:17.620Z,81.21
2018-09-27T05:35:17.581Z,81.13
2018-09-27T05:36:17.635Z,81.08
2018-09-27T05:37:17.578Z,81.05
2018-09-27T05:38:17.584Z,80.87
2018-09-27T05:39:17.625Z,80.65
2018-09-27T05:40:17.679Z,80.63
2018-09-27T05:41:17.724Z,80.49
2018-09-27T05:42:17.682Z,80.39
2018-09-27T05:43:17.625Z,80.02
2018-09-27T05:44:17.737Z,80.02
2018-09-27T05:45:17.704Z,79.99
2018-09-27T05:46:17.742Z,79.63
2018-09-27T05:47:17.626Z,78.97
2018-09-27T05:48:17.729Z,79.36
2018-09-27T05:49:17.678Z,79.25
2018-09-27T05:50:17.711Z,79.23
2018-09-27T05:51:17.642Z,78.89
2018-09-27T05:52:17.644Z,78.73
2018-09-27T05:53:17.648Z,78.49
2018-09-27T05:54:17.646Z,78.49
2018-09-27T05:55:17.711Z,78.44
2018-09-27T05:56:17.719Z,78.41
2018-09-27T05:57:17.716Z,78.33
2018-09-27T05:58:17.657Z,78.44
2018-09-27T05:59:17.678Z,78.52
2018-09-27T06:00:17.718Z,78.41
2018-09-27T06:01:17.621Z,78.83
2018-09-27T06:02:17.678Z,78.99
2018-09-27T06:03:17.646Z,79.17
2018-09-27T06:04:17.639Z,79.31
2018-09-27T06:05:17.715Z,79.17
2018-09-27T06:06:17.721Z,79.36
2018-09-27T06:07:17.625Z,79.81
2018-09-27T06:08:17.718Z,79.97
2018-09-27T06:09:17.711Z,80.05
2018-09-27T06:10:17.652Z,80.10
2018-09-27T06:11:17.676Z,80.13
2018-09-27T06:12:17.733Z,80.26
2018-09-27T06:13:17.660Z,80.44
2018-09-27T06:14:17.734Z,80.71
2018-09-27T06:15:17.729Z,80.71
2018-09-27T06:16:17.660Z,81.00
2018-09-27T06:17:17.661Z,80.94
2018-09-27T06:18:17.734Z,81.05
2018-09-27T06:19:17.668Z,81.26
2018-09-27T06:21:17.618Z,80.92
2018-09-27T06:22:17.669Z,81.02
2018-09-27T06:23:17.660Z,81.13
2018-09-27T06:24:17.720Z,80.87
2018-09-27T06:25:17.688Z,80.79
2018-09-27T06:26:17.681Z,80.57
2018-09-27T06:27:17.693Z,80.89
2018-09-27T06:28:17.719Z,80.21
2018-09-27T06:29:17.664Z,80.39
2018-09-27T06:30:17.665Z,80.02
2018-09-27T06:31:17.656Z,80.10
2018-09-27T06:32:17.779Z,80.15
2018-09-27T06:33:17.740Z,80.13
2018-09-27T06:34:17.825Z,79.83
2018-09-27T06:35:17.700Z,79.75
2018-09-27T06:36:17.765Z,79.36
2018-09-27T06:37:17.741Z,79.23
2018-09-27T06:38:17.726Z,78.94
2018-09-27T06:39:17.663Z,78.75
2018-09-27T06:40:17.684Z,78.36
2018-09-27T06:41:17.789Z,78.47
2018-09-27T06:42:17.710Z,78.78
2018-09-27T06:43:17.675Z,79.02
2018-09-27T06:44:17.739Z,78.54
2018-09-27T06:45:17.747Z,78.01
2018-09-27T06:46:17.687Z,77.94
2018-09-27T06:47:17.751Z,77.54
2018-09-27T06:48:17.701Z,77.39
2018-09-27T06:49:17.753Z,77.28
2018-09-27T06:50:17.745Z,77.67
2018-09-27T06:51:17.720Z,77.83
2018-09-27T06:52:17.791Z,78.20
2018-09-27T06:53:17.717Z,78.09
2018-09-27T06:54:17.772Z,77.67
2018-09-27T06:55:17.966Z,77.23
2018-09-27T06:56:17.838Z,76.86
2018-09-27T06:57:17.733Z,76.44
2018-09-27T06:58:17.712Z,76.75
2018-09-27T06:59:17.780Z,76.78
2018-09-27T07:00:17.776Z,76.75
2018-09-27T07:01:17.782Z,75.89
2018-09-27T07:02:17.756Z,75.68
2018-09-27T07:03:17.757Z,75.86
2018-09-27T07:04:17.765Z,75.89
2018-09-27T07:05:17.765Z,76.10
2018-09-27T07:06:17.790Z,76.02
2018-09-27T07:07:17.761Z,76.10
2018-09-27T07:08:17.716Z,75.99
2018-09-27T07:09:17.687Z,75.81
2018-09-27T07:10:17.783Z,75.92
2018-09-27T07:11:17.642Z,75.96
2018-09-27T07:12:17.816Z,76.20
2018-09-27T07:13:17.765Z,76.52
2018-09-27T07:14:17.691Z,76.26
2018-09-27T07:15:17.695Z,76.15
2018-09-27T07:16:17.763Z,76.52
2018-09-27T07:17:17.762Z,77.20
2018-09-27T07:18:17.724Z,76.20
2018-09-27T07:19:17.645Z,76.15
2018-09-27T07:20:17.717Z,75.96
2018-09-27T07:21:17.811Z,76.67
2018-09-27T07:22:17.802Z,77.39
2018-09-27T07:23:17.777Z,76.65
2018-09-27T07:24:17.698Z,75.73
2018-09-27T07:25:17.872Z,74.76
2018-09-27T07:26:17.760Z,74.63
2018-09-27T07:27:17.855Z,74.58
2018-09-27T07:28:17.700Z,74.05
2018-09-27T07:29:17.812Z,74.66
2018-09-27T07:30:17.780Z,74.47
2018-09-27T07:31:17.700Z,73.95
2018-09-27T07:32:17.747Z,73.48
2018-09-27T07:33:17.781Z,73.48
2018-09-27T07:34:17.793Z,72.88
2018-09-27T07:35:17.710Z,71.96
2018-09-27T07:36:17.828Z,72.53
2018-09-27T07:37:17.743Z,72.80
2018-09-27T07:38:17.756Z,71.86
2018-09-27T07:39:17.817Z,71.83
2018-09-27T07:40:17.749Z,71.26
2018-09-27T07:41:17.744Z,70.95
2018-09-27T07:42:17.707Z,71.26
2018-09-27T07:43:17.714Z,70.87
2018-09-27T07:44:17.707Z,70.01
2018-09-27T07:45:17.748Z,69.44
2018-09-27T07:46:17.788Z,69.15
2018-09-27T07:47:17.823Z,68.24
2018-09-27T07:48:17.814Z,67.57
2018-09-27T07:49:17.698Z,65.39
2018-09-27T07:50:17.766Z,65.53
2018-09-27T07:51:17.735Z,65.81
2018-09-27T07:52:17.857Z,64.90
2018-09-27T07:53:17.730Z,65.18
2018-09-27T07:54:17.856Z,65.81
2018-09-27T07:55:17.729Z,65.89
2018-09-27T07:56:17.802Z,66.12
2018-09-27T07:57:17.770Z,66.56
2018-09-27T07:58:17.821Z,66.40
2018-09-27T07:59:17.746Z,66.37
2018-09-27T08:00:17.742Z,66.22
2018-09-27T08:01:17.785Z,66.43
2018-09-27T08:02:17.726Z,65.76
2018-09-27T08:03:17.743Z,65.65
2018-09-27T08:04:17.899Z,66.12
2018-09-27T08:05:17.766Z,66.95
2018-09-27T08:06:17.765Z,65.91
2018-09-27T08:07:17.740Z,66.14
2018-09-27T08:08:17.729Z,64.95
2018-09-27T08:09:17.839Z,65.11
2018-09-27T08:10:17.828Z,64.38
2018-09-27T08:11:17.913Z,64.90
2018-09-27T08:12:17.875Z,65.06
2018-09-27T08:13:17.809Z,65.45
2018-09-27T08:14:17.812Z,65.55
2018-09-27T08:15:17.814Z,65.29
2018-09-27T08:16:17.741Z,65.60
2018-09-27T08:17:17.816Z,66.35
2018-09-27T08:18:17.811Z,65.08
2018-09-27T08:19:17.813Z,65.53
2018-09-27T08:20:17.759Z,65.76
2018-09-27T08:21:17.836Z,65.11
2018-09-27T08:22:17.833Z,64.95
2018-09-27T08:23:17.788Z,64.98
2018-09-27T08:24:17.892Z,64.75
2018-09-27T08:25:17.836Z,65.01
2018-09-27T08:26:17.864Z,64.00
2018-09-27T08:27:17.838Z,65.03
2018-09-27T08:28:17.806Z,63.07
2018-09-27T08:29:17.857Z,64.57
2018-09-27T08:30:17.757Z,63.79
2018-09-27T08:31:17.886Z,61.78
2018-09-27T08:32:17.765Z,61.78
2018-09-27T08:33:17.820Z,61.09
2018-09-27T08:34:17.841Z,60.53
2018-09-27T08:35:17.762Z,60.66
2018-09-27T08:36:17.768Z,61.53
2018-09-27T08:37:17.944Z,60.22
2018-09-27T08:38:17.808Z,59.28
2018-09-27T08:39:17.829Z,59.07
2018-09-27T08:40:17.837Z,59.20
2018-09-27T08:41:17.784Z,59.09
2018-09-27T08:42:17.756Z,59.28
2018-09-27T08:43:17.724Z,59.58
2018-09-27T08:44:17.731Z,59.68
2018-09-27T08:45:18.143Z,58.02
2018-09-27T08:46:17.726Z,57.76
2018-09-27T08:47:17.730Z,57.76
2018-09-27T08:48:17.819Z,56.44
2018-09-27T08:49:17.815Z,57.59
2018-09-27T08:50:17.763Z,56.16
2018-09-27T08:51:17.858Z,55.47
2018-09-27T08:52:17.867Z,55.65
2018-09-27T08:53:17.793Z,55.72
2018-09-27T08:54:17.810Z,55.98
2018-09-27T08:55:17.826Z,55.14
2018-09-27T08:56:17.794Z,55.83
2018-09-27T08:57:17.841Z,56.74
2018-09-27T08:58:17.746Z,55.83
2018-09-27T08:59:17.745Z,57.51
2018-09-27T09:00:17.900Z,55.06
2018-09-27T09:01:17.876Z,53.59
2018-09-27T09:02:17.787Z,54.68
2018-09-27T09:03:17.851Z,54.12
2018-09-27T09:04:17.797Z,54.68
2018-09-27T09:05:17.870Z,53.97
2018-09-27T09:06:17.874Z,53.69
2018-09-27T09:07:17.872Z,54.33
2018-09-27T09:08:17.786Z,54.73
2018-09-27T09:09:17.826Z,54.73
2018-09-27T09:10:17.809Z,55.19
2018-09-27T09:11:17.905Z,52.48
2018-09-27T09:12:17.924Z,51.97
2018-09-27T09:13:17.881Z,50.93
2018-09-27T09:14:17.881Z,49.47
2018-09-27T09:15:17.859Z,49.37
2018-09-27T09:16:17.807Z,49.22
2018-09-27T09:17:17.820Z,49.09
2018-09-27T09:18:17.889Z,48.36
2018-09-27T09:19:17.857Z,49.17
2018-09-27T09:20:17.775Z,49.85
2018-09-27T09:21:17.855Z,48.08
2018-09-27T09:22:17.895Z,48.11
2018-09-27T09:23:17.900Z,48.48
2018-09-27T09:24:17.824Z,48.54
2018-09-27T09:25:17.841Z,49.77
2018-09-27T09:26:17.860Z,47.76
2018-09-27T09:27:17.829Z,50.38
2018-09-27T09:28:17.886Z,48.97
2018-09-27T09:29:17.782Z,48.11
2018-09-27T09:30:17.967Z,48.19
2018-09-27T09:31:17.768Z,46.83
2018-09-27T09:32:17.694Z,47.20
2018-09-27T09:33:17.820Z,46.58
2018-09-27T09:34:17.877Z,45.75
2018-09-27T09:35:17.818Z,45.95
2018-09-27T09:36:17.758Z,45.90
2018-09-27T09:37:17.819Z,45.37
2018-09-27T09:38:17.738Z,45.98
2018-09-27T09:39:17.787Z,44.70
2018-09-27T09:40:17.697Z,43.75
2018-09-27T09:41:17.824Z,45.10
2018-09-27T09:42:17.857Z,44.05
2018-09-27T09:43:17.865Z,43.45
2018-09-27T09:44:17.794Z,42.50
2018-09-27T09:45:17.794Z,43.13
2018-09-27T09:46:17.839Z,44.05
2018-09-27T09:47:17.751Z,45.27
2018-09-27T09:48:17.879Z,44.35
2018-09-27T09:49:17.821Z,44.45
2018-09-27T09:50:17.770Z,44.87
2018-09-27T09:51:17.812Z,43.92
2018-09-27T09:52:17.808Z,44.17
2018-09-27T09:53:17.883Z,43.92
2018-09-27T09:54:17.816Z,43.60
2018-09-27T09:55:17.880Z,43.50
2018-09-27T09:56:17.836Z,43.15
2018-09-27T09:57:17.819Z,43.67
2018-09-27T09:58:17.821Z,44.27
2018-09-27T09:59:17.835Z,43.38
2018-09-27T10:00:17.965Z,42.67
2018-09-27T10:01:17.886Z,41.90
2018-09-27T10:02:17.811Z,41.63
2018-09-27T10:03:17.824Z,39.24
2018-09-27T10:04:17.887Z,39.10
2018-09-27T10:05:17.860Z,38.13
2018-09-27T10:06:17.888Z,39.10
2018-09-27T10:07:17.888Z,38.00
2018-09-27T10:08:17.825Z,37.19
2018-09-27T10:09:17.826Z,37.27
2018-09-27T10:10:17.926Z,36.45
2018-09-27T10:11:17.888Z,36.87
2018-09-27T10:12:17.830Z,38.50
2018-09-27T10:13:17.835Z,35.34
2018-09-27T10:14:17.877Z,33.99
2018-09-27T10:15:17.819Z,33.96
2018-09-27T10:16:17.838Z,34.73
2018-09-27T10:17:17.837Z,35.59
2018-09-27T10:18:17.937Z,33.76
2018-09-27T10:19:17.850Z,34.18
2018-09-27T10:20:17.899Z,34.67
2018-09-27T10:21:17.884Z,34.82
2018-09-27T10:22:17.825Z,34.57
2018-09-27T10:23:17.893Z,34.30
2018-09-27T10:24:17.861Z,34.92
2018-09-27T10:25:17.886Z,34.55
2018-09-27T10:26:17.779Z,34.73
2018-09-27T10:27:17.929Z,34.85
2018-09-27T10:28:17.893Z,33.96
2018-09-27T10:29:17.841Z,33.40
2018-09-27T10:30:17.869Z,33.42
2018-09-27T10:31:17.870Z,31.83
2018-09-27T10:32:17.880Z,34.06
2018-09-27T10:33:17.949Z,34.38
2018-09-27T10:34:18.009Z,34.65
2018-09-27T10:35:17.814Z,36.13
2018-09-27T10:36:17.870Z,35.49
2018-09-27T10:37:17.891Z,35.68
2018-09-27T10:38:17.871Z,35.14
2018-09-27T10:39:17.855Z,33.81
2018-09-27T10:40:17.866Z,34.30
2018-09-27T10:41:17.848Z,35.19
2018-09-27T10:42:17.848Z,34.73
2018-09-27T10:43:17.927Z,32.51
2018-09-27T10:44:17.853Z,32.56
2018-09-27T10:45:17.865Z,33.87
2018-09-27T10:46:17.863Z,32.41
2018-09-27T10:47:17.917Z,33.25
2018-09-27T10:48:17.924Z,31.63
2018-09-27T10:49:17.851Z,31.83
2018-09-27T10:50:17.927Z,32.27
2018-09-27T10:51:17.901Z,33.18
2018-09-27T10:52:17.826Z,33.87
2018-09-27T10:53:17.857Z,33.84
2018-09-27T10:54:17.926Z,33.40
2018-09-27T10:55:17.843Z,33.84
2018-09-27T10:56:17.920Z,33.84
2018-09-27T10:57:18.054Z,32.96
2018-09-27T10:58:17.903Z,33.54
2018-09-27T10:59:17.959Z,34.30
2018-09-27T11:00:17.879Z,34.23
2018-09-27T11:01:17.883Z,33.49
2018-09-27T11:02:17.883Z,34.38
2018-09-27T11:03:17.918Z,35.78
2018-09-27T11:04:17.830Z,33.96
2018-09-27T11:05:17.819Z,34.67
2018-09-27T11:06:17.922Z,34.35
2018-09-27T11:07:17.826Z,33.42
2018-09-27T11:08:17.958Z,33.18
2018-09-27T11:09:17.923Z,33.52
2018-09-27T11:10:17.863Z,32.46
2018-09-27T11:11:17.882Z,33.08
2018-09-27T11:12:17.925Z,33.99
2018-09-27T11:13:17.846Z,34.70
2018-09-27T11:14:17.928Z,33.79
2018-09-27T11:15:17.837Z,33.20
2018-09-27T11:16:17.854Z,33.91
2018-09-27T11:17:17.937Z,32.49
2018-09-27T11:18:17.931Z,33.52
2018-09-27T11:19:18.000Z,33.59
2018-09-27T11:20:17.893Z,33.42
2018-09-27T11:21:17.942Z,34.92
2018-09-27T11:22:17.946Z,34.92
2018-09-27T11:23:17.886Z,35.26
2018-09-27T11:24:17.884Z,34.97
2018-09-27T11:25:17.948Z,33.91
2018-09-27T11:26:17.912Z,33.52
2018-09-27T11:27:17.879Z,36.33
2018-09-27T11:28:17.954Z,34.01
2018-09-27T11:29:17.955Z,32.46
2018-09-27T11:30:17.919Z,33.10
2018-09-27T11:31:17.981Z,33.42
2018-09-27T11:32:17.929Z,33.15
2018-09-27T11:33:18.013Z,32.91
2018-09-27T11:34:17.929Z,35.14
2018-09-27T11:35:17.977Z,35.41
2018-09-27T11:36:18.017Z,35.56
2018-09-27T11:37:17.988Z,33.96
2018-09-27T11:38:17.956Z,33.40
2018-09-27T11:39:17.886Z,32.98
2018-09-27T11:40:17.873Z,33.49
2018-09-27T11:41:17.910Z,35.12
2018-09-27T11:42:17.960Z,33.74
2018-09-27T11:43:17.815Z,33.15
2018-09-27T11:44:17.905Z,33.76
2018-09-27T11:45:17.909Z,34.18
2018-09-27T11:46:17.912Z,35.71
2018-09-27T11:47:17.865Z,34.21
2018-09-27T11:48:17.877Z,33.89
2018-09-27T11:49:17.911Z,32.36
2018-09-27T11:50:17.947Z,32.24
2018-09-27T11:51:17.881Z,32.10
2018-09-27T11:52:17.997Z,31.39
2018-09-27T11:53:17.989Z,32.27
2018-09-27T11:54:17.868Z,33.03
2018-09-27T11:55:17.968Z,33.71
2018-09-27T11:56:17.920Z,31.41
2018-09-27T11:57:18.002Z,33.71
2018-09-27T11:58:17.941Z,31.07
2018-09-27T11:59:17.868Z,31.02
2018-09-27T12:00:17.945Z,31.19
2018-09-27T12:01:17.993Z,33.03
2018-09-27T12:02:17.933Z,30.02
2018-09-27T12:03:17.991Z,30.04
2018-09-27T12:04:18.011Z,30.41
2018-09-27T12:05:17.997Z,30.29
2018-09-27T12:06:17.948Z,30.46
2018-09-27T12:07:17.997Z,29.98
2018-09-27T12:08:17.943Z,30.24
2018-09-27T12:09:17.974Z,29.10
2018-09-27T12:10:17.882Z,29.31
2018-09-27T12:11:17.904Z,30.09
2018-09-27T12:12:17.901Z,28.70
2018-09-27T12:13:18.058Z,29.20
2018-09-27T12:14:17.902Z,28.19
2018-09-27T12:15:17.951Z,27.63
2018-09-27T12:16:18.038Z,28.10
2018-09-27T12:17:17.952Z,27.99
2018-09-27T12:18:17.902Z,27.34
2018-09-27T12:19:17.886Z,27.47
2018-09-27T12:20:17.905Z,27.26
2018-09-27T12:21:17.939Z,27.71
2018-09-27T12:22:18.021Z,29.60
2018-09-27T12:23:17.986Z,28.04
2018-09-27T12:24:18.019Z,26.71
2018-09-27T12:25:18.019Z,26.49
2018-09-27T12:26:17.890Z,28.54
2018-09-27T12:27:17.912Z,26.53
2018-09-27T12:28:18.016Z,26.57
2018-09-27T12:29:17.989Z,27.30
2018-09-27T12:30:17.997Z,28.63
2018-09-27T12:31:17.984Z,26.78
2018-09-27T12:32:17.908Z,26.85
2018-09-27T12:33:17.978Z,26.43
2018-09-27T12:34:17.987Z,25.61
2018-09-27T12:35:17.921Z,24.66
2018-09-27T12:36:17.990Z,24.39
2018-09-27T12:37:17.987Z,25.53
2018-09-27T12:38:18.001Z,26.08
2018-09-27T12:39:17.928Z,25.78
2018-09-27T12:40:17.985Z,27.83
2018-09-27T12:41:17.951Z,25.12
2018-09-27T12:42:18.213Z,30.29
2018-09-27T12:43:18.023Z,25.03
2018-09-27T12:44:18.036Z,23.54
2018-09-27T12:45:18.122Z,24.70
2018-09-27T12:46:18.013Z,23.86
2018-09-27T12:47:18.003Z,23.23
2018-09-27T12:48:18.071Z,23.63
2018-09-27T12:49:18.008Z,23.82
2018-09-27T12:50:17.987Z,23.93
2018-09-27T12:51:18.049Z,24.69
2018-09-27T12:52:18.205Z,24.26
2018-09-27T12:53:18.142Z,23.33